Time;durP1;ratioP1;P1;durP2;ratioP2;P2;SDS_P1;SDS_P2;PMS_P1;PMS_P2;Temp;Humidity;BMP_temperature;BMP_pressure;BME280_temperature;BME280_humidity;BME280_pressure;Samples;Min_cycle;Max_cycle;Signal;HPM_P1;HPM_P2
2021/11/11 00:00:31;;;;;;;13.60;7.60;;;6.20;95.20;;;;;;5049201;28;20043;-69
2021/11/11 00:02:58;;;;;;;13.43;6.90;;;6.20;95.10;;;;;;5050062;28;20371;-66
2021/11/11 00:05:24;;;;;;;18.23;7.87;;;6.10;95.00;;;;;;5050044;28;20128;-68
2021/11/11 00:07:50;;;;;;;14.40;7.35;;;6.10;95.00;;;;;;5050002;28;20544;-67
2021/11/11 00:10:17;;;;;;;19.48;7.72;;;6.10;95.10;;;;;;5048835;28;20129;-67
2021/11/11 00:12:44;;;;;;;17.38;7.57;;;6.00;95.10;;;;;;5049882;28;20057;-67
2021/11/11 00:15:12;;;;;;;15.55;7.22;;;6.00;95.10;;;;;;5049876;28;20124;-67
2021/11/11 00:17:38;;;;;;;14.73;7.60;;;6.00;95.10;;;;;;5049993;28;20029;-66
2021/11/11 00:20:05;;;;;;;14.75;6.75;;;6.00;95.30;;;;;;5048688;28;20044;-66
2021/11/11 00:22:31;;;;;;;14.73;7.45;;;6.00;95.40;;;;;;5049824;28;20036;-66
2021/11/11 00:24:56;;;;;;;16.17;7.93;;;6.10;95.30;;;;;;5050204;28;20049;-68
2021/11/11 00:27:22;;;;;;;13.77;7.78;;;6.20;95.40;;;;;;5049872;28;20036;-67
2021/11/11 00:29:47;;;;;;;13.55;7.15;;;6.20;95.30;;;;;;5049927;28;20067;-67
2021/11/11 00:32:13;;;;;;;14.48;8.00;;;6.20;95.30;;;;;;5049963;28;20423;-68
2021/11/11 00:34:39;;;;;;;14.13;6.85;;;6.30;95.30;;;;;;5049727;28;20036;-68
2021/11/11 00:37:05;;;;;;;15.40;7.50;;;6.30;95.40;;;;;;5050324;28;20182;-68
2021/11/11 00:39:31;;;;;;;14.98;7.53;;;6.30;95.50;;;;;;5049516;28;20656;-68
2021/11/11 00:41:56;;;;;;;20.70;7.90;;;6.30;95.40;;;;;;5049612;28;20029;-67
2021/11/11 00:44:22;;;;;;;15.80;7.63;;;6.30;95.40;;;;;;5049984;28;20032;-67
2021/11/11 00:46:48;;;;;;;18.88;7.70;;;6.30;95.40;;;;;;5049516;28;20368;-67
2021/11/11 00:49:14;;;;;;;16.27;7.95;;;6.40;95.40;;;;;;5049807;28;20025;-67
2021/11/11 00:51:40;;;;;;;13.88;7.95;;;6.30;95.50;;;;;;5049482;28;20058;-68
2021/11/11 00:54:07;;;;;;;12.18;7.07;;;6.40;95.70;;;;;;5049468;28;20032;-68
2021/11/11 00:56:33;;;;;;;18.98;8.27;;;6.50;95.50;;;;;;5049480;28;20040;-67
2021/11/11 00:58:59;;;;;;;18.00;7.50;;;6.40;95.50;;;;;;5049365;28;20083;-69
2021/11/11 01:01:28;;;;;;;13.93;7.38;;;6.40;95.70;;;;;;5049556;28;20335;-68
2021/11/11 01:04:04;;;;;;;12.98;6.80;;;6.40;96.00;;;;;;5049651;28;20025;-68
2021/11/11 01:06:29;;;;;;;15.73;7.07;;;6.40;95.80;;;;;;5049214;28;20029;-68
2021/11/11 01:08:56;;;;;;;15.00;7.57;;;6.50;95.80;;;;;;5049420;28;20136;-69
2021/11/11 01:11:23;;;;;;;14.40;7.20;;;6.60;95.70;;;;;;5050025;28;20037;-67
2021/11/11 01:13:48;;;;;;;14.38;7.60;;;6.60;95.50;;;;;;5053212;28;20037;-68
2021/11/11 01:16:14;;;;;;;13.15;7.22;;;6.60;95.60;;;;;;5053516;28;20021;-68
2021/11/11 01:18:40;;;;;;;13.57;7.18;;;6.70;95.80;;;;;;5053443;28;20091;-67
2021/11/11 01:21:07;;;;;;;18.13;7.38;;;6.70;95.70;;;;;;5053342;28;20072;-68
2021/11/11 01:23:33;;;;;;;14.40;7.10;;;6.60;95.80;;;;;;5053237;28;20040;-67
2021/11/11 01:25:59;;;;;;;24.75;7.60;;;6.60;95.80;;;;;;5053320;28;20025;-67
2021/11/11 01:28:25;;;;;;;14.68;6.97;;;6.60;95.90;;;;;;5053271;28;20116;-68
2021/11/11 01:30:50;;;;;;;18.40;7.38;;;6.70;96.00;;;;;;5053519;28;20104;-67
2021/11/11 01:33:16;;;;;;;16.25;7.28;;;6.70;96.00;;;;;;5052991;28;20029;-67
2021/11/11 01:35:42;;;;;;;17.55;7.00;;;6.70;96.00;;;;;;5052894;28;20152;-67
2021/11/11 01:38:08;;;;;;;15.20;6.80;;;6.70;96.20;;;;;;5052817;28;20482;-67
2021/11/11 01:40:34;;;;;;;12.80;6.63;;;6.70;96.20;;;;;;5051871;28;20078;-67
2021/11/11 01:43:03;;;;;;;14.82;7.00;;;6.80;96.30;;;;;;5053444;28;20017;-68
2021/11/11 01:45:34;;;;;;;14.07;7.13;;;6.90;96.30;;;;;;5052947;28;20056;-68
2021/11/11 01:48:01;;;;;;;13.80;6.70;;;6.90;96.30;;;;;;5052821;28;20025;-68
2021/11/11 01:50:28;;;;;;;10.30;6.55;;;6.90;96.40;;;;;;5052673;28;20371;-67
2021/11/11 01:52:55;;;;;;;14.10;7.30;;;7.00;96.50;;;;;;5052733;28;20029;-68
2021/11/11 01:55:21;;;;;;;12.93;7.75;;;7.00;96.70;;;;;;5052476;28;20628;-67
2021/11/11 01:57:47;;;;;;;12.13;6.95;;;7.00;96.60;;;;;;5053127;28;20039;-67
2021/11/11 02:00:21;;;;;;;13.38;6.95;;;7.00;96.50;;;;;;5052726;28;20439;-68
2021/11/11 02:02:53;;;;;;;15.88;7.45;;;7.10;96.70;;;;;;5051358;28;20025;-67
2021/11/11 02:05:19;;;;;;;15.35;7.38;;;7.20;96.40;;;;;;5052369;28;20355;-68
2021/11/11 02:07:44;;;;;;;12.43;7.18;;;7.30;96.60;;;;;;5052569;28;20045;-69
2021/11/11 02:10:10;;;;;;;14.68;6.72;;;7.40;96.50;;;;;;5052799;28;20029;-67
2021/11/11 02:12:36;;;;;;;12.52;6.60;;;7.30;96.50;;;;;;5052078;28;20063;-67
2021/11/11 02:15:02;;;;;;;12.35;6.70;;;7.30;96.60;;;;;;5052490;28;20106;-68
2021/11/11 02:17:29;;;;;;;12.10;6.70;;;7.40;96.60;;;;;;5052462;28;20026;-69
2021/11/11 02:20:09;;;;;;;12.37;6.83;;;7.40;96.70;;;;;;5052635;28;20021;-68
2021/11/11 02:22:35;;;;;;;12.25;6.47;;;7.40;96.80;;;;;;5051914;28;20391;-69
2021/11/11 02:25:01;;;;;;;16.33;6.72;;;7.40;96.90;;;;;;5052423;28;20017;-67
2021/11/11 02:27:26;;;;;;;15.18;7.28;;;7.50;96.80;;;;;;5052219;28;20120;-67
2021/11/11 02:29:52;;;;;;;12.75;6.68;;;7.50;96.80;;;;;;5052261;28;20094;-67
2021/11/11 02:32:18;;;;;;;16.13;7.18;;;7.50;96.90;;;;;;5052080;28;20102;-67
2021/11/11 02:34:44;;;;;;;17.13;8.25;;;7.50;96.90;;;;;;5051689;28;20033;-67
2021/11/11 02:37:10;;;;;;;17.10;7.13;;;7.50;97.00;;;;;;5072290;28;20476;-67
2021/11/11 02:39:37;;;;;;;14.10;7.97;;;7.60;97.00;;;;;;5071827;28;20033;-69
2021/11/11 02:42:03;;;;;;;14.57;6.77;;;7.60;97.00;;;;;;5071836;28;20458;-68
2021/11/11 02:44:31;;;;;;;15.45;7.13;;;7.60;97.10;;;;;;5070607;28;20020;-68
2021/11/11 02:46:57;;;;;;;18.27;7.70;;;7.50;97.00;;;;;;5071878;28;20135;-68
2021/11/11 02:49:29;;;;;;;13.55;7.03;;;7.70;97.10;;;;;;5071766;28;20024;-67
2021/11/11 02:51:54;;;;;;;13.88;6.55;;;7.80;96.60;;;;;;5071813;28;20123;-68
2021/11/11 02:54:20;;;;;;;15.13;7.05;;;7.80;96.70;;;;;;5071504;28;20187;-68
2021/11/11 02:56:46;;;;;;;14.60;7.35;;;7.80;96.80;;;;;;5071448;28;20047;-68
2021/11/11 02:59:11;;;;;;;16.52;7.38;;;7.80;96.70;;;;;;5071408;28;20029;-68
2021/11/11 03:01:37;;;;;;;14.90;7.10;;;7.90;96.70;;;;;;5071450;28;20059;-67
2021/11/11 03:04:03;;;;;;;14.77;7.68;;;7.90;96.70;;;;;;5071707;28;20128;-68
2021/11/11 03:06:28;;;;;;;14.23;8.18;;;7.80;96.70;;;;;;5071381;28;20043;-68
2021/11/11 03:08:54;;;;;;;13.55;7.40;;;7.80;96.60;;;;;;5071238;28;20044;-68
2021/11/11 03:11:22;;;;;;;12.82;7.30;;;7.90;96.70;;;;;;5071334;28;20032;-67
2021/11/11 03:13:48;;;;;;;14.18;7.35;;;8.00;96.60;;;;;;5071113;28;20535;-68
2021/11/11 03:16:14;;;;;;;14.52;7.18;;;7.90;96.80;;;;;;5071459;28;20028;-68
2021/11/11 03:18:40;;;;;;;11.77;6.95;;;8.00;96.70;;;;;;5070968;28;20024;-68
2021/11/11 03:21:05;;;;;;;20.52;7.50;;;8.00;96.50;;;;;;5069992;28;20024;-69
2021/11/11 03:23:31;;;;;;;16.17;7.75;;;8.00;96.40;;;;;;5070937;28;20025;-68
2021/11/11 03:25:57;;;;;;;15.15;7.90;;;8.00;96.50;;;;;;5071064;28;20402;-68
2021/11/11 03:28:22;;;;;;;15.98;7.35;;;8.00;96.70;;;;;;5070702;28;20031;-68
2021/11/11 03:30:48;;;;;;;14.98;7.25;;;8.10;96.50;;;;;;5071284;28;20031;-68
2021/11/11 03:33:14;;;;;;;16.13;8.05;;;8.20;96.20;;;;;;5070131;28;20467;-67
2021/11/11 03:35:39;;;;;;;17.35;7.82;;;8.20;96.40;;;;;;5070761;28;20131;-67
2021/11/11 03:38:06;;;;;;;14.40;7.35;;;8.20;96.40;;;;;;5070783;28;20131;-68
2021/11/11 03:40:39;;;;;;;14.38;7.07;;;8.10;96.30;;;;;;5070657;28;20442;-68
2021/11/11 03:43:06;;;;;;;15.07;7.25;;;8.10;96.50;;;;;;5071251;28;20024;-68
2021/11/11 03:45:33;;;;;;;16.02;7.28;;;8.10;96.60;;;;;;5070691;28;20032;-67
2021/11/11 03:47:58;;;;;;;15.32;7.45;;;8.10;96.60;;;;;;5069307;28;20082;-67
2021/11/11 03:50:24;;;;;;;11.68;6.78;;;8.10;96.60;;;;;;5070471;28;20040;-67
2021/11/11 03:52:51;;;;;;;16.13;7.68;;;8.30;96.30;;;;;;5070512;28;20119;-68
2021/11/11 03:55:21;;;;;;;16.95;8.00;;;8.40;96.10;;;;;;5071072;28;20035;-68
2021/11/11 03:57:47;;;;;;;16.30;6.93;;;8.50;95.80;;;;;;5070454;28;20060;-68
2021/11/11 04:00:16;;;;;;;23.48;7.82;;;8.40;95.90;;;;;;5069422;28;20071;-68
2021/11/11 04:02:43;;;;;;;23.45;7.95;;;8.40;96.20;;;;;;5070432;28;20040;-67
2021/11/11 04:05:09;;;;;;;14.40;7.80;;;8.30;95.90;;;;;;5070234;28;20044;-68
2021/11/11 04:07:35;;;;;;;15.43;7.75;;;8.30;96.20;;;;;;5070129;28;20645;-68
2021/11/11 04:10:01;;;;;;;15.77;7.70;;;8.40;96.30;;;;;;5070481;28;20055;-68
2021/11/11 04:12:26;;;;;;;13.60;7.68;;;8.50;96.10;;;;;;5069920;28;20049;-68
2021/11/11 04:14:52;;;;;;;17.20;8.18;;;8.40;96.10;;;;;;5070062;28;20388;-68
2021/11/11 04:17:18;;;;;;;17.35;7.72;;;8.40;96.30;;;;;;5070054;28;20033;-68
2021/11/11 04:19:44;;;;;;;14.90;7.68;;;8.30;96.40;;;;;;5070070;28;20028;-68
2021/11/11 04:22:10;;;;;;;14.52;7.10;;;8.30;96.50;;;;;;5070309;28;20567;-68
2021/11/11 04:24:36;;;;;;;16.25;7.55;;;8.30;96.70;;;;;;5069911;28;20036;-68
2021/11/11 04:27:06;;;;;;;18.85;8.05;;;8.30;96.70;;;;;;5069905;28;20036;-68
2021/11/11 04:29:36;;;;;;;17.83;7.82;;;8.40;96.70;;;;;;5069347;28;20078;-68
2021/11/11 04:32:04;;;;;;;17.52;7.82;;;8.40;96.50;;;;;;5069773;28;20090;-67
2021/11/11 04:34:31;;;;;;;17.17;8.65;;;8.50;96.50;;;;;;5069754;28;20017;-68
2021/11/11 04:59:32;;;;;;;18.85;8.43;;;8.40;97.00;;;;;;5070154;28;20024;-67
2021/11/11 05:03:49;;;;;;;19.08;8.05;;;8.60;96.80;;;;;;5070049;28;20421;-68
2021/11/11 05:06:16;;;;;;;17.17;8.18;;;8.70;96.80;;;;;;5069665;28;20385;-67
2021/11/11 05:08:42;;;;;;;20.43;10.47;;;8.60;96.70;;;;;;5069339;28;20036;-68
2021/11/11 05:11:08;;;;;;;23.20;8.82;;;8.50;96.80;;;;;;5069483;28;20024;-68
2021/11/11 05:13:34;;;;;;;21.27;9.75;;;8.50;97.00;;;;;;5069212;28;20127;-68
2021/11/11 05:15:59;;;;;;;18.85;9.10;;;8.50;97.00;;;;;;5068964;28;20017;-68
2021/11/11 05:18:25;;;;;;;18.83;9.27;;;8.60;97.00;;;;;;5068530;28;20021;-67
2021/11/11 05:20:51;;;;;;;17.55;8.90;;;8.50;97.00;;;;;;5069712;28;20028;-68
2021/11/11 05:23:17;;;;;;;23.35;9.75;;;8.50;97.00;;;;;;5069542;28;20021;-68
2021/11/11 05:25:43;;;;;;;17.73;9.82;;;8.50;96.90;;;;;;5069542;28;20033;-66
2021/11/11 05:28:09;;;;;;;22.27;9.63;;;8.60;96.90;;;;;;5069765;28;20031;-68
2021/11/11 05:30:35;;;;;;;19.30;8.80;;;8.60;96.90;;;;;;5069469;28;20032;-68
2021/11/11 05:33:00;;;;;;;25.40;10.02;;;8.60;96.90;;;;;;5069203;28;20127;-69
2021/11/11 05:35:27;;;;;;;20.45;9.18;;;8.60;96.90;;;;;;5069233;28;20037;-68
2021/11/11 05:37:53;;;;;;;18.35;8.80;;;8.50;96.90;;;;;;5069554;28;20029;-68
2021/11/11 05:40:20;;;;;;;23.88;9.43;;;8.60;97.00;;;;;;5069853;28;20012;-68
2021/11/11 05:42:47;;;;;;;22.40;10.52;;;8.60;96.80;;;;;;5069492;28;20040;-68
2021/11/11 05:45:15;;;;;;;25.70;10.63;;;8.60;96.80;;;;;;5069223;28;20064;-69
2021/11/11 05:47:42;;;;;;;24.95;9.98;;;8.60;96.70;;;;;;5068279;28;20032;-69
2021/11/11 05:50:08;;;;;;;20.75;10.50;;;8.50;96.80;;;;;;5068179;28;20036;-69
2021/11/11 05:52:34;;;;;;;19.60;9.55;;;8.50;96.90;;;;;;5069380;28;20446;-68
2021/11/11 05:55:00;;;;;;;30.58;11.20;;;8.40;96.90;;;;;;5069722;28;20118;-67
2021/11/11 05:57:26;;;;;;;21.77;9.93;;;8.50;96.90;;;;;;5071098;28;20052;-68
2021/11/11 05:59:51;;;;;;;23.17;10.60;;;8.60;96.90;;;;;;5072811;28;20083;-67
2021/11/11 06:02:17;;;;;;;26.88;10.85;;;8.60;96.80;;;;;;5073014;28;20025;-69
2021/11/11 06:04:43;;;;;;;25.92;10.55;;;8.60;96.90;;;;;;5072078;28;20423;-68
2021/11/11 06:07:10;;;;;;;22.15;10.32;;;8.60;96.90;;;;;;5073600;28;20039;-68
2021/11/11 06:09:36;;;;;;;21.50;10.48;;;8.60;97.10;;;;;;5073012;28;20115;-68
2021/11/11 06:12:02;;;;;;;29.85;11.02;;;8.60;97.10;;;;;;5072800;28;20136;-68
2021/11/11 06:14:27;;;;;;;19.10;8.80;;;8.60;97.10;;;;;;5072977;28;20032;-81
2021/11/11 06:16:53;;;;;;;21.23;10.30;;;8.70;97.10;;;;;;5072778;28;20032;-69
2021/11/11 06:19:19;;;;;;;20.42;10.00;;;8.80;97.30;;;;;;5072103;28;20048;-69
2021/11/11 06:21:45;;;;;;;19.65;10.85;;;8.80;97.30;;;;;;5073406;28;20028;-69
2021/11/11 06:24:13;;;;;;;28.40;11.02;;;8.80;97.20;;;;;;5073043;28;20057;-68
2021/11/11 06:26:39;;;;;;;24.92;11.20;;;8.90;96.90;;;;;;5072903;28;20131;-68
2021/11/11 06:29:05;;;;;;;17.33;9.95;;;9.00;96.60;;;;;;5072577;28;20198;-69
2021/11/11 06:31:31;;;;;;;27.67;10.52;;;9.10;96.50;;;;;;5071919;28;20024;-70
2021/11/11 06:33:57;;;;;;;18.85;10.20;;;9.20;96.40;;;;;;5053001;28;20029;-68
2021/11/11 06:36:23;;;;;;;23.15;10.25;;;9.20;96.40;;;;;;5052200;28;20041;-68
2021/11/11 06:38:52;;;;;;;20.90;10.05;;;9.20;96.50;;;;;;5052452;28;20033;-68
2021/11/11 06:41:17;;;;;;;20.70;10.23;;;9.10;96.80;;;;;;5052279;28;20060;-68
2021/11/11 06:43:43;;;;;;;23.85;11.80;;;9.10;97.00;;;;;;5052485;28;20044;-68
2021/11/11 06:46:10;;;;;;;19.15;9.70;;;9.00;97.10;;;;;;5052860;28;20453;-68
2021/11/11 06:48:37;;;;;;;22.27;10.23;;;9.00;97.00;;;;;;5052709;28;20463;-68
2021/11/11 06:51:03;;;;;;;20.55;10.23;;;9.30;96.90;;;;;;5052756;28;20037;-67
2021/11/11 06:53:29;;;;;;;22.85;10.10;;;9.20;96.90;;;;;;5052739;28;20514;-68
2021/11/11 06:55:55;;;;;;;20.60;9.68;;;9.10;96.90;;;;;;5052819;28;20060;-68
2021/11/11 06:58:23;;;;;;;21.33;10.88;;;9.10;96.90;;;;;;5052835;28;20067;-69
2021/11/11 07:00:50;;;;;;;25.38;12.45;;;9.00;96.70;;;;;;5053516;28;20099;-69
2021/11/11 07:03:16;;;;;;;20.65;9.93;;;9.00;96.80;;;;;;5051849;28;20056;-66
2021/11/11 07:05:41;;;;;;;23.23;10.77;;;9.00;96.70;;;;;;5052499;28;20067;-66
2021/11/11 07:08:10;;;;;;;25.15;10.90;;;9.00;96.70;;;;;;5050237;28;20562;-68
2021/11/11 07:10:37;;;;;;;23.77;11.02;;;9.00;96.70;;;;;;5052193;28;20021;-68
2021/11/11 07:13:03;;;;;;;22.40;10.77;;;9.00;96.70;;;;;;5052487;28;20037;-67
2021/11/11 07:15:28;;;;;;;25.90;11.05;;;9.10;96.70;;;;;;5052486;28;20097;-68
2021/11/11 07:17:54;;;;;;;19.70;10.52;;;9.10;96.70;;;;;;5052730;28;20032;-68
2021/11/11 07:20:20;;;;;;;21.15;10.88;;;9.00;96.60;;;;;;5052439;28;20347;-67
2021/11/11 07:22:46;;;;;;;20.83;10.48;;;9.10;96.70;;;;;;5052096;28;20042;-66
2021/11/11 07:25:13;;;;;;;23.27;11.43;;;9.10;96.70;;;;;;5052847;28;20029;-67
2021/11/11 07:27:39;;;;;;;18.92;10.50;;;9.10;96.60;;;;;;5052364;28;20068;-67
2021/11/11 07:30:10;;;;;;;20.08;10.55;;;9.20;96.40;;;;;;5052410;28;20606;-67
2021/11/11 07:32:36;;;;;;;22.58;10.55;;;9.20;96.40;;;;;;5052251;28;20054;-67
2021/11/11 07:35:02;;;;;;;22.35;11.13;;;9.20;96.30;;;;;;5052000;28;20041;-69
2021/11/11 07:37:28;;;;;;;30.70;13.40;;;9.20;96.40;;;;;;5051894;28;20048;-67
2021/11/11 07:39:54;;;;;;;20.58;11.43;;;9.10;96.40;;;;;;5051139;28;20400;-67
2021/11/11 07:42:21;;;;;;;18.77;10.30;;;9.20;96.50;;;;;;5051788;28;20417;-68
2021/11/11 07:44:47;;;;;;;22.23;10.45;;;9.40;96.50;;;;;;5051731;28;20029;-67
2021/11/11 07:47:17;;;;;;;22.42;11.10;;;9.40;96.40;;;;;;5051674;28;20028;-68
2021/11/11 07:49:42;;;;;;;25.45;11.20;;;9.40;96.50;;;;;;5051990;28;20037;-68
2021/11/11 07:52:10;;;;;;;24.23;10.77;;;9.30;96.40;;;;;;5052126;28;20103;-68
2021/11/11 07:54:35;;;;;;;23.58;10.85;;;9.40;96.40;;;;;;5051752;28;20029;-68
2021/11/11 07:57:01;;;;;;;21.10;10.50;;;9.50;96.30;;;;;;5051580;28;20044;-68
2021/11/11 07:59:27;;;;;;;26.95;11.40;;;9.50;96.40;;;;;;5051580;28;20029;-68
2021/11/11 08:01:53;;;;;;;23.30;10.50;;;9.50;96.40;;;;;;5051482;28;20032;-67
2021/11/11 08:04:19;;;;;;;27.70;11.77;;;9.50;96.50;;;;;;5050715;28;20029;-68
2021/11/11 08:06:45;;;;;;;23.35;10.55;;;9.50;96.50;;;;;;5051464;28;20037;-68
2021/11/11 08:09:11;;;;;;;19.98;10.27;;;9.50;96.50;;;;;;5051343;28;20116;-67
2021/11/11 08:11:36;;;;;;;22.42;11.23;;;9.60;96.50;;;;;;5051273;28;20124;-67
2021/11/11 08:14:05;;;;;;;23.73;10.55;;;9.50;96.50;;;;;;5051307;28;20094;-67
2021/11/11 08:16:31;;;;;;;32.05;10.07;;;9.50;96.40;;;;;;5050924;28;20025;-67
2021/11/11 08:18:58;;;;;;;19.20;9.68;;;9.60;96.40;;;;;;5051200;28;20108;-67
2021/11/11 08:21:24;;;;;;;20.85;10.15;;;9.60;96.40;;;;;;5050672;28;20465;-67
2021/11/11 08:23:49;;;;;;;22.88;10.98;;;9.60;96.40;;;;;;5050801;28;20063;-68
2021/11/11 08:26:15;;;;;;;19.70;9.77;;;9.60;96.30;;;;;;5051146;28;20032;-68
2021/11/11 08:28:40;;;;;;;19.13;10.13;;;9.70;96.40;;;;;;5051146;28;20063;-68
2021/11/11 08:31:06;;;;;;;20.23;10.73;;;9.70;96.30;;;;;;5051410;28;20064;-67
2021/11/11 08:33:31;;;;;;;21.25;9.45;;;9.70;96.30;;;;;;5050672;28;20463;-67
2021/11/11 08:35:57;;;;;;;17.73;8.88;;;9.80;96.40;;;;;;5050699;28;20452;-67
2021/11/11 08:38:23;;;;;;;20.45;10.02;;;9.80;96.30;;;;;;5050873;28;20175;-66
2021/11/11 08:40:49;;;;;;;21.63;10.43;;;9.90;96.30;;;;;;5050784;28;20047;-67
2021/11/11 08:43:15;;;;;;;24.75;9.25;;;9.90;96.20;;;;;;5051140;28;20454;-66
2021/11/11 08:45:40;;;;;;;19.50;9.68;;;9.90;96.30;;;;;;5051208;28;20029;-67
2021/11/11 08:48:06;;;;;;;27.83;11.85;;;10.00;95.90;;;;;;5049474;28;20518;-66
2021/11/11 08:50:34;;;;;;;18.27;9.23;;;9.90;96.40;;;;;;5050669;28;20467;-67
2021/11/11 08:53:01;;;;;;;22.83;12.70;;;10.00;95.90;;;;;;5050677;28;20510;-67
2021/11/11 08:55:30;;;;;;;18.67;9.38;;;10.10;95.80;;;;;;5050543;28;20480;-66
2021/11/11 08:57:58;;;;;;;18.75;8.93;;;10.00;95.70;;;;;;5051038;28;20032;-66
2021/11/11 09:00:25;;;;;;;17.92;9.43;;;10.10;95.80;;;;;;5050607;28;20052;-68
2021/11/11 09:02:54;;;;;;;16.27;9.13;;;10.10;96.10;;;;;;5050298;28;20021;-67
2021/11/11 09:05:20;;;;;;;17.52;9.45;;;10.20;95.90;;;;;;5050617;28;20033;-68
2021/11/11 09:07:47;;;;;;;18.80;9.45;;;10.20;95.90;;;;;;5050604;28;20033;-66
2021/11/11 09:10:15;;;;;;;25.15;9.85;;;10.20;95.70;;;;;;5049901;28;20056;-66
2021/11/11 09:12:42;;;;;;;20.13;9.45;;;10.20;95.50;;;;;;5050133;28;20052;-66
2021/11/11 09:15:12;;;;;;;24.20;9.57;;;10.30;95.70;;;;;;5049113;28;20037;-66
2021/11/11 09:17:39;;;;;;;18.40;9.38;;;10.40;95.60;;;;;;5050794;28;20033;-67
2021/11/11 09:20:10;;;;;;;18.60;9.30;;;10.40;95.50;;;;;;5050322;28;20052;-67
2021/11/11 09:22:36;;;;;;;15.60;8.23;;;10.40;95.60;;;;;;5050040;28;20021;-66
2021/11/11 09:25:05;;;;;;;19.10;8.40;;;10.40;95.50;;;;;;5050856;28;20032;-68
2021/11/11 09:27:31;;;;;;;21.42;9.43;;;10.40;95.60;;;;;;5050150;28;20056;-68
2021/11/11 09:29:57;;;;;;;22.25;9.60;;;10.50;95.80;;;;;;5050288;28;20336;-68
2021/11/11 09:32:22;;;;;;;15.88;8.40;;;10.60;95.60;;;;;;5051903;28;20060;-67
2021/11/11 09:34:48;;;;;;;30.75;10.30;;;10.60;95.50;;;;;;5053960;28;20056;-69
2021/11/11 09:37:14;;;;;;;19.52;8.63;;;10.70;95.50;;;;;;5053295;28;20588;-67
2021/11/11 09:39:39;;;;;;;19.92;8.95;;;10.70;95.50;;;;;;5053908;28;20025;-67
2021/11/11 09:42:05;;;;;;;21.55;8.85;;;10.80;95.50;;;;;;5053489;28;20033;-67
2021/11/11 09:44:32;;;;;;;18.25;8.90;;;10.70;95.40;;;;;;5054005;28;20118;-66
2021/11/11 09:46:58;;;;;;;23.35;9.23;;;10.80;95.40;;;;;;5052949;28;20029;-67
2021/11/11 09:49:25;;;;;;;15.55;7.90;;;10.80;95.30;;;;;;5052866;28;20220;-67
2021/11/11 09:51:51;;;;;;;17.58;9.25;;;10.80;95.30;;;;;;5054029;28;20017;-67
2021/11/11 09:59:40;;;;;;;17.88;9.15;;;10.80;95.60;;;;;;5053716;28;20063;-67
2021/11/11 10:02:08;;;;;;;14.50;8.10;;;10.80;95.50;;;;;;5053721;28;20029;-68
2021/11/11 10:04:34;;;;;;;14.63;8.35;;;10.90;95.60;;;;;;5052288;28;20427;-67
2021/11/11 10:07:01;;;;;;;15.60;8.20;;;11.00;95.50;;;;;;5052791;28;20021;-67
2021/11/11 10:09:27;;;;;;;12.82;7.15;;;11.10;95.50;;;;;;5052291;28;20338;-67
2021/11/11 10:12:00;;;;;;;17.58;7.10;;;11.20;95.50;;;;;;5053036;28;20029;-67
2021/11/11 10:14:31;;;;;;;13.55;7.85;;;11.10;95.50;;;;;;5053347;28;20032;-67
2021/11/11 10:16:58;;;;;;;13.18;6.82;;;11.30;95.70;;;;;;5053302;28;20383;-68
2021/11/11 10:19:26;;;;;;;23.08;11.35;;;11.40;95.40;;;;;;5052025;28;20436;-66
2021/11/11 10:21:59;;;;;;;11.13;7.40;;;11.40;95.60;;;;;;5053578;28;20109;-66
2021/11/11 10:24:28;;;;;;;14.32;6.93;;;11.40;95.30;;;;;;5053162;28;20044;-67
2021/11/11 10:26:58;;;;;;;14.75;7.53;;;11.40;95.30;;;;;;5053030;28;20362;-67
2021/11/11 10:29:54;;;;;;;15.55;7.72;;;11.50;95.30;;;;;;5053248;28;20025;-67
2021/11/11 10:32:28;;;;;;;14.90;7.40;;;11.70;95.30;;;;;;5050702;28;20403;-67
2021/11/11 10:34:55;;;;;;;16.45;7.38;;;11.60;95.30;;;;;;5051535;28;20124;-66
2021/11/11 10:37:25;;;;;;;11.02;6.30;;;11.80;95.30;;;;;;5052091;28;20355;-67
2021/11/11 10:40:03;;;;;;;14.90;7.43;;;11.90;95.00;;;;;;5053155;28;20021;-67
2021/11/11 10:42:30;;;;;;;10.25;6.00;;;11.90;94.90;;;;;;5051406;28;20041;-67
2021/11/11 10:44:56;;;;;;;11.57;6.38;;;11.90;94.80;;;;;;5051341;28;20026;-68
2021/11/11 10:47:29;;;;;;;11.55;5.63;;;11.90;95.00;;;;;;5052424;28;20052;-66
2021/11/11 10:49:55;;;;;;;10.57;5.70;;;11.80;95.00;;;;;;5052343;28;20025;-67
2021/11/11 10:52:31;;;;;;;14.05;7.50;;;11.90;95.00;;;;;;5052456;28;20020;-66
2021/11/11 10:54:57;;;;;;;10.07;5.25;;;11.90;94.90;;;;;;5052846;28;20093;-68
2021/11/11 10:57:52;;;;;;;12.18;6.70;;;12.00;95.00;;;;;;5052544;28;20044;-67
2021/11/11 11:00:25;;;;;;;10.45;5.82;;;12.10;94.90;;;;;;5052150;28;20034;-68
2021/11/11 11:02:57;;;;;;;9.10;4.88;;;12.10;95.00;;;;;;5052248;28;20047;-68
2021/11/11 11:05:38;;;;;;;8.93;4.40;;;12.10;94.90;;;;;;5052523;28;20374;-70
2021/11/11 11:08:11;;;;;;;6.38;3.72;;;12.10;94.70;;;;;;5050848;28;20060;-67
2021/11/11 11:10:39;;;;;;;5.97;3.90;;;12.10;94.60;;;;;;5052273;28;20029;-68
2021/11/11 11:13:10;;;;;;;;;;;12.10;94.40;;;;;;5051630;28;20132;-68
2021/11/11 11:15:40;;;;;;;4.93;3.70;;;12.20;94.40;;;;;;5051979;28;19928;-67
2021/11/11 11:18:06;;;;;;;5.95;3.55;;;12.30;94.40;;;;;;5051986;28;20188;-68
2021/11/11 11:20:33;;;;;;;3.85;2.60;;;12.20;94.30;;;;;;5051838;28;20120;-67
2021/11/11 11:23:21;;;;;;;4.78;2.95;;;12.10;94.50;;;;;;5052025;28;20021;-67
2021/11/11 11:25:54;;;;;;;3.72;2.72;;;12.10;94.40;;;;;;5051012;28;20029;-67
2021/11/11 11:28:25;;;;;;;7.15;2.72;;;12.00;94.30;;;;;;5051828;28;20186;-68
2021/11/11 11:30:53;;;;;;;4.95;2.85;;;12.10;94.50;;;;;;5052121;28;20083;-67
2021/11/11 11:33:30;;;;;;;5.15;3.60;;;12.10;94.20;;;;;;5051824;28;20029;-68
2021/11/11 11:35:58;;;;;;;7.15;3.90;;;12.10;94.20;;;;;;5051403;28;20462;-67
2021/11/11 11:38:29;;;;;;;5.45;3.40;;;12.20;94.30;;;;;;5051480;28;20094;-67
2021/11/11 11:40:55;;;;;;;6.63;3.78;;;12.30;94.20;;;;;;5051698;28;20112;-67
2021/11/11 11:43:30;;;;;;;5.47;3.55;;;12.30;94.00;;;;;;5051618;28;20176;-67
2021/11/11 11:46:11;;;;;;;6.85;3.80;;;12.40;93.90;;;;;;5050713;28;20029;-68
2021/11/11 11:48:37;;;;;;;5.55;4.10;;;12.30;93.70;;;;;;5051392;28;20033;-67
2021/11/11 11:51:06;;;;;;;8.25;4.18;;;12.30;93.80;;;;;;5051316;28;20378;-69
2021/11/11 11:53:38;;;;;;;10.57;4.43;;;12.30;93.70;;;;;;5051297;28;20037;-68
2021/11/11 11:56:09;;;;;;;9.02;4.72;;;12.30;93.70;;;;;;5050614;28;20067;-67
2021/11/11 11:58:42;;;;;;;6.93;3.92;;;12.30;93.70;;;;;;5050982;28;20025;-68
2021/11/11 12:01:25;;;;;;;7.10;4.30;;;12.40;93.60;;;;;;5051392;28;20020;-67
2021/11/11 12:09:20;;;;;;;8.90;4.53;;;12.50;93.30;;;;;;5051200;28;20029;-67
2021/11/11 12:40:04;;;;;;;8.70;4.32;;;12.70;92.90;;;;;;5051066;28;20055;-68
2021/11/11 12:42:43;;;;;;;6.97;4.43;;;12.80;92.90;;;;;;5050440;28;20044;-69
2021/11/11 12:45:26;;;;;;;9.07;4.95;;;12.80;92.80;;;;;;5050512;28;20036;-67
2021/11/11 12:48:16;;;;;;;14.07;4.95;;;12.80;92.60;;;;;;5050456;28;20040;-69
2021/11/11 12:51:01;;;;;;;8.25;4.65;;;12.90;92.50;;;;;;5050281;28;20040;-67
2021/11/11 12:53:31;;;;;;;7.20;5.22;;;12.90;92.50;;;;;;5050528;28;20029;-68
2021/11/11 12:55:59;;;;;;;8.13;4.53;;;12.90;92.30;;;;;;5050483;28;20043;-66
2021/11/11 12:58:34;;;;;;;9.60;5.38;;;12.80;92.30;;;;;;5050318;28;20104;-67
2021/11/11 13:01:08;;;;;;;9.88;5.32;;;12.80;92.30;;;;;;5051205;28;20033;-70
2021/11/11 13:03:49;;;;;;;9.77;6.00;;;12.80;92.30;;;;;;5050274;28;20739;-68
2021/11/11 13:07:00;;;;;;;9.05;5.32;;;12.80;92.40;;;;;;5050341;28;20111;-69
2021/11/11 13:09:35;;;;;;;9.98;4.90;;;12.80;92.20;;;;;;5054676;28;20017;-66
2021/11/11 13:12:06;;;;;;;9.88;5.35;;;12.80;92.40;;;;;;5054282;28;20076;-66
2021/11/11 13:14:51;;;;;;;10.82;5.30;;;12.90;92.30;;;;;;5054249;28;20037;-68
2021/11/11 13:17:18;;;;;;;9.55;5.18;;;12.90;92.30;;;;;;5054422;28;20067;-67
2021/11/11 13:19:50;;;;;;;9.07;5.07;;;12.80;92.10;;;;;;5054464;28;20408;-69
2021/11/11 16:01:16;;;;;;;22.02;10.73;;;12.50;94.40;;;;;;5051384;28;20541;-68
2021/11/11 16:20:06;;;;;;;18.95;11.02;;;12.70;94.90;;;;;;5051309;28;20135;-69
2021/11/11 16:27:38;;;;;;;36.03;12.63;;;12.60;95.20;;;;;;5050858;28;20049;-68
2021/11/11 16:30:14;;;;;;;24.83;11.82;;;12.60;95.40;;;;;;5050786;28;20112;-67
2021/11/11 16:32:41;;;;;;;25.42;11.77;;;12.60;95.60;;;;;;5051159;28;20033;-68
2021/11/11 16:35:09;;;;;;;25.35;12.20;;;12.60;95.70;;;;;;5050877;28;20028;-68
2021/11/11 16:37:36;;;;;;;33.75;13.00;;;12.60;95.70;;;;;;5050810;28;20177;-67
2021/11/11 16:40:07;;;;;;;28.58;13.02;;;12.50;95.90;;;;;;5049980;28;20021;-69
2021/11/11 16:42:33;;;;;;;22.70;12.55;;;12.50;96.10;;;;;;5050623;28;20053;-66
2021/11/11 16:44:59;;;;;;;27.27;13.15;;;12.40;96.10;;;;;;5049448;28;20021;-66
2021/11/11 16:47:25;;;;;;;24.23;12.70;;;12.20;96.20;;;;;;5050634;28;20104;-67
2021/11/11 16:49:50;;;;;;;25.02;13.15;;;12.20;96.40;;;;;;5050417;28;20094;-68